Quay, NM (88433)

8:42 PM MDT on September 14, 2014 (GMT -0600)
Tucumcari Municipal | Change Station
CLOSE
Current Station
Airport
Location: Tucumcari,
Elevation: 4065 ft
Nearby Weather Stations

Elev 4065 ft 35.18 °N, 103.60 °W | Updated 49 minutes ago

Partly Cloudy
Partly Cloudy
68 °F
Feels Like 68 °F
N
10
Wind Variable Wind from SW

Today
High -- | Low -- °F
--% Chance of Precip.
Yesterday
High -- | Low -- °F
Precip. -- in
6:37 AM 7:03 PM
Waning Gibbous, 60% visible
Pressure 30.00 in
Visibility 10.0 miles
Clouds Clear
Dew Point 59 °F
Humidity 73%
Rainfall 0.00 in
Snow Depth 21 in , 0 in , 1 in
UV 0 out of 12
Pollen 9.80 out of 12
Air Quality Not available.
Flu Activity Not available.
METAR KTCC 150153Z AUTO 22009KT 10SM CLR 20/15 A3012 RMK AO2 SLP159 T02000150

More Conditions Fewer Conditions

Pressure 30.00 in
Visibility 10.0 miles
Clouds Clear
Dew Point 59 °F
Humidity 73%
Rainfall 0.00 in
Snow Depth 21 in , 0 in , 1 in
UV 0 out of 12
Pollen 9.80 out of 12
Air Quality Not available.
Flu Activity Not available.
METAR KTCC 150153Z AUTO 22009KT 10SM CLR 20/15 A3012 RMK AO2 SLP159 T02000150

More Conditions Fewer Conditions

Nowcast | as of 8:07 PM MDT on September 14, 2014

Through 930 PM MDT...isolated showers will continue to diminish across portions of eastern New Mexico. Expect light to moderate rain with amounts generally remaining less than a tenth of an inch with locally heavier amounts possible. Some erratic and gusty winds to 45 mph will also accompany the rainfall.

×

10-Day Weather Forecast

Almanac

Astronomy

Sep. 14, 2014 Rise Set
Actual Time 6:37 AM MDT 7:03 PM MDT
Civil Twilight 6:12 AM MDT 7:28 PM MDT
Nautical Twilight 5:42 AM MDT 7:58 PM MDT
Astronomical Twilight 5:11 AM MDT 8:28 PM MDT
Moon 11:11 PM MDT (9/14) 12:32 PM MDT (9/14)
Length of Visible Light 13h 16m
Length of Day
12h 26m
Tomorrow will be 2m 10s shorter.
Waning Gibbous, 60% of the Moon is Illuminated
Today
Waning Gibbous
Sep 15
Last Quarter
Sep 24
New
Oct 1
First Quarter
Oct 8
Full

Today's Extremes

State Highs State Lows

Community

WunderPhotos

Upload Photos

1,753,385 photos uploaded!

Nearby

Snow Depth

Station Depth Elevation
Silver Creek Divide 21 in 9000 ft
Tolby 0 in 10180 ft
Quemazon 1 in 9500 ft
Hopewell 0 in 10000 ft
Gallegos Peak 0 in 9800 ft

Earthquake Activity

City Distance Mag. Time & Date
No recent earthquake activity has been reported nearby.
Minimum magnitude displayed is 2.5.

Coastal Water Temperatures

Place Temperature
No Stations Reporting

Nearby Weather Stations